Elda A — WDH6629 — position and weather

sailwx.info

Track history (hours):
 
Tides and Currents Weather Stations Pressure Air Temp Water Temp Dewpoint Dewpoint Depression Visibility Wind Speed Wind Dir Waves Ship Positions

Elda A

Owner: REC Marine Logistics, Galliano, LA. More information available from US FCC via Universal Licensing System and Coast Guard Vessel Documentation Center.

Last reported at 2017-Nov-17 03:27 UTC. Time now 2017-Nov-21 17:41 UTC.
Position N 29°32' W 090°50'.

Length 14 m.

Type: Tug. MMSI: 367639990.

Date/timePositionNaut miles runAvg speedWind from/ knotsBaromVisibWave heightAir tempDewpointWater temp
2017-Nov-17 03:27N 29°32' W 090°50'4 8.1
2017-Nov-17 03:00N 29°32' W 090°46'3 5.9
2017-Nov-17 02:30N 29°34' W 090°43'2 4.4
2017-Nov-17 02:00N 29°36' W 090°43'2 5.0
2017-Nov-17 01:30N 29°36' W 090°40'4 7.2
2017-Nov-17 01:00N 29°35' W 090°36'4 7.2
2017-Nov-17 00:30N 29°34' W 090°32'1 1.0
2017-Nov-17 00:00N 29°33' W 090°32'0 0.0
2017-Nov-16 23:30N 29°33' W 090°32'0 0.0
2017-Nov-16 23:00N 29°33' W 090°32'0 0.0
2017-Nov-16 22:30N 29°33' W 090°32'0 0.0
2017-Nov-16 22:00N 29°33' W 090°32'0 0.0
2017-Nov-16 21:30N 29°33' W 090°32'0 0.0
2017-Nov-16 21:00N 29°33' W 090°32'0 0.0
2017-Nov-16 20:30N 29°33' W 090°32'0 0.0
2017-Nov-16 19:59N 29°33' W 090°32'0 0.0
2017-Nov-16 19:30N 29°33' W 090°32'0 0.0
2017-Nov-16 19:00N 29°33' W 090°32'0 0.0
2017-Nov-16 18:30N 29°33' W 090°32'0 0.0
2017-Nov-16 17:58N 29°33' W 090°32'0 0.0
2017-Nov-16 17:30N 29°33' W 090°32'0 0.0
2017-Nov-16 17:00N 29°33' W 090°32'0 0.0
2017-Nov-16 16:30N 29°33' W 090°32'0 0.0
2017-Nov-16 16:00N 29°33' W 090°32'0 0.0
2017-Nov-16 15:30N 29°33' W 090°32'0 0.0
2017-Nov-16 15:00N 29°33' W 090°32'0 0.0
2017-Nov-16 14:30N 29°33' W 090°32'0 0.0
2017-Nov-16 14:00N 29°33' W 090°32'0 0.0
2017-Nov-16 13:28N 29°33' W 090°32'0 0.0
2017-Nov-16 13:00N 29°33' W 090°32'0 0.0
2017-Nov-16 12:30N 29°33' W 090°32'0 0.0
2017-Nov-16 11:59N 29°33' W 090°32'0 0.0
2017-Nov-16 11:30N 29°33' W 090°32'0 0.0
2017-Nov-16 11:00N 29°33' W 090°32'0 0.0
2017-Nov-16 10:30N 29°33' W 090°32'0 0.0
2017-Nov-16 09:55N 29°33' W 090°32'0 0.0
2017-Nov-16 09:30N 29°33' W 090°32'0 0.0
2017-Nov-16 09:00N 29°33' W 090°32'0 0.0
2017-Nov-16 08:29N 29°33' W 090°32'0 0.0
2017-Nov-16 08:00N 29°33' W 090°32'0 0.0
2017-Nov-16 07:30N 29°33' W 090°32'0 0.0
2017-Nov-16 07:00N 29°33' W 090°32'0 0.0
2017-Nov-16 06:30N 29°33' W 090°32'0 0.0
2017-Nov-16 06:00N 29°33' W 090°32'0 0.0
2017-Nov-16 05:30N 29°33' W 090°32'0 0.0
2017-Nov-16 05:00N 29°33' W 090°32'1 1.8
2017-Nov-16 04:30N 29°34' W 090°33'3 6.5
2017-Nov-16 04:00N 29°35' W 090°36'4 7.2
2017-Nov-16 03:30N 29°36' W 090°40'2 4.9
2017-Nov-16 03:00N 29°35' W 090°43'1 2.5
2017-Nov-16 02:30N 29°34' W 090°43'0 0.6
2017-Nov-16 02:00N 29°34' W 090°43'3 5.3
2017-Nov-16 01:30N 29°32' W 090°46'4 7.3
2017-Nov-16 01:00N 29°32' W 090°50'4 7.3
2017-Nov-16 00:30N 29°33' W 090°54'4 7.6
2017-Nov-15 23:56N 29°35' W 090°58'  
Track history (hours):
 
Tides and Currents Weather Stations Pressure Air Temp Water Temp Dewpoint Dewpoint Depression Visibility Wind Speed Wind Dir Waves Ship Positions

Elda A

Owner: REC Marine Logistics, Galliano, LA. More information available from US FCC via Universal Licensing System and Coast Guard Vessel Documentation Center.

Last reported at 2017-Nov-17 03:27 UTC. Time now 2017-Nov-21 17:41 UTC.
Position N 29°32' W 090°50'.

Length 14 m.

Type: Tug. MMSI: 367639990.

Date/timePositionNaut miles runAvg speedWind from/ knotsBaromVisibWave heightAir tempDewpointWater temp
2017-Nov-17 03:27N 29°32' W 090°50'4 8.1
2017-Nov-17 03:00N 29°32' W 090°46'3 5.9
2017-Nov-17 02:30N 29°34' W 090°43'2 4.4
2017-Nov-17 02:00N 29°36' W 090°43'2 5.0
2017-Nov-17 01:30N 29°36' W 090°40'4 7.2
2017-Nov-17 01:00N 29°35' W 090°36'4 7.2
2017-Nov-17 00:30N 29°34' W 090°32'1 1.0
2017-Nov-17 00:00N 29°33' W 090°32'0 0.0
2017-Nov-16 23:30N 29°33' W 090°32'0 0.0
2017-Nov-16 23:00N 29°33' W 090°32'0 0.0
2017-Nov-16 22:30N 29°33' W 090°32'0 0.0
2017-Nov-16 22:00N 29°33' W 090°32'0 0.0
2017-Nov-16 21:30N 29°33' W 090°32'0 0.0
2017-Nov-16 21:00N 29°33' W 090°32'0 0.0
2017-Nov-16 20:30N 29°33' W 090°32'0 0.0
2017-Nov-16 19:59N 29°33' W 090°32'0 0.0
2017-Nov-16 19:30N 29°33' W 090°32'0 0.0
2017-Nov-16 19:00N 29°33' W 090°32'0 0.0
2017-Nov-16 18:30N 29°33' W 090°32'0 0.0
2017-Nov-16 17:58N 29°33' W 090°32'0 0.0
2017-Nov-16 17:30N 29°33' W 090°32'0 0.0
2017-Nov-16 17:00N 29°33' W 090°32'0 0.0
2017-Nov-16 16:30N 29°33' W 090°32'0 0.0
2017-Nov-16 16:00N 29°33' W 090°32'0 0.0
2017-Nov-16 15:30N 29°33' W 090°32'0 0.0
2017-Nov-16 15:00N 29°33' W 090°32'0 0.0
2017-Nov-16 14:30N 29°33' W 090°32'0 0.0
2017-Nov-16 14:00N 29°33' W 090°32'0 0.0
2017-Nov-16 13:28N 29°33' W 090°32'0 0.0
2017-Nov-16 13:00N 29°33' W 090°32'0 0.0
2017-Nov-16 12:30N 29°33' W 090°32'0 0.0
2017-Nov-16 11:59N 29°33' W 090°32'0 0.0
2017-Nov-16 11:30N 29°33' W 090°32'0 0.0
2017-Nov-16 11:00N 29°33' W 090°32'0 0.0
2017-Nov-16 10:30N 29°33' W 090°32'0 0.0
2017-Nov-16 09:55N 29°33' W 090°32'0 0.0
2017-Nov-16 09:30N 29°33' W 090°32'0 0.0
2017-Nov-16 09:00N 29°33' W 090°32'0 0.0
2017-Nov-16 08:29N 29°33' W 090°32'0 0.0
2017-Nov-16 08:00N 29°33' W 090°32'0 0.0
2017-Nov-16 07:30N 29°33' W 090°32'0 0.0
2017-Nov-16 07:00N 29°33' W 090°32'0 0.0
2017-Nov-16 06:30N 29°33' W 090°32'0 0.0
2017-Nov-16 06:00N 29°33' W 090°32'0 0.0
2017-Nov-16 05:30N 29°33' W 090°32'0 0.0
2017-Nov-16 05:00N 29°33' W 090°32'1 1.8
2017-Nov-16 04:30N 29°34' W 090°33'3 6.5
2017-Nov-16 04:00N 29°35' W 090°36'4 7.2
2017-Nov-16 03:30N 29°36' W 090°40'2 4.9
2017-Nov-16 03:00N 29°35' W 090°43'1 2.5
2017-Nov-16 02:30N 29°34' W 090°43'0 0.6
2017-Nov-16 02:00N 29°34' W 090°43'3 5.3
2017-Nov-16 01:30N 29°32' W 090°46'4 7.3
2017-Nov-16 01:00N 29°32' W 090°50'4 7.3
2017-Nov-16 00:30N 29°33' W 090°54'4 7.6
2017-Nov-15 23:56N 29°35' W 090°58'  

Dump ship's entire track history